sensor_id;sensor_type;location;lat;lon;timestamp;temperature;humidity
39099;DHT22;24844;52.380;7.018;2023-06-04T00:01:38;13.40;73.90
39099;DHT22;24844;52.380;7.018;2023-06-04T00:04:04;13.40;74.10
39099;DHT22;24844;52.380;7.018;2023-06-04T00:06:29;13.20;75.20
39099;DHT22;24844;52.380;7.018;2023-06-04T00:08:55;13.10;76.10
39099;DHT22;24844;52.380;7.018;2023-06-04T00:11:20;13.10;76.10
39099;DHT22;24844;52.380;7.018;2023-06-04T00:13:46;13.10;76.70
39099;DHT22;24844;52.380;7.018;2023-06-04T00:16:11;13.00;77.50
39099;DHT22;24844;52.380;7.018;2023-06-04T00:18:37;12.90;78.20
39099;DHT22;24844;52.380;7.018;2023-06-04T00:21:03;13.00;77.90
39099;DHT22;24844;52.380;7.018;2023-06-04T00:23:28;13.00;77.70
39099;DHT22;24844;52.380;7.018;2023-06-04T00:25:54;13.00;78.00
39099;DHT22;24844;52.380;7.018;2023-06-04T00:28:19;12.90;78.00
39099;DHT22;24844;52.380;7.018;2023-06-04T00:30:46;12.90;77.70
39099;DHT22;24844;52.380;7.018;2023-06-04T00:33:11;12.80;78.80
39099;DHT22;24844;52.380;7.018;2023-06-04T00:35:37;12.70;79.40
39099;DHT22;24844;52.380;7.018;2023-06-04T00:38:02;12.60;80.60
39099;DHT22;24844;52.380;7.018;2023-06-04T00:40:28;12.50;81.10
39099;DHT22;24844;52.380;7.018;2023-06-04T00:42:53;12.50;80.90
39099;DHT22;24844;52.380;7.018;2023-06-04T00:45:21;12.40;80.60
39099;DHT22;24844;52.380;7.018;2023-06-04T00:47:46;12.30;80.40
39099;DHT22;24844;52.380;7.018;2023-06-04T00:50:13;12.30;80.60
39099;DHT22;24844;52.380;7.018;2023-06-04T00:52:39;12.10;81.80
39099;DHT22;24844;52.380;7.018;2023-06-04T00:55:05;12.00;82.30
39099;DHT22;24844;52.380;7.018;2023-06-04T00:57:31;11.90;82.10
39099;DHT22;24844;52.380;7.018;2023-06-04T00:59:56;11.80;82.00
39099;DHT22;24844;52.380;7.018;2023-06-04T01:02:23;11.70;82.20
39099;DHT22;24844;52.380;7.018;2023-06-04T01:05:01;11.70;82.40
39099;DHT22;24844;52.380;7.018;2023-06-04T01:07:28;11.60;83.20
39099;DHT22;24844;52.380;7.018;2023-06-04T01:09:55;11.40;83.90
39099;DHT22;24844;52.380;7.018;2023-06-04T01:12:21;11.40;84.80
39099;DHT22;24844;52.380;7.018;2023-06-04T01:14:47;11.30;85.40
39099;DHT22;24844;52.380;7.018;2023-06-04T01:20:04;11.20;86.70
39099;DHT22;24844;52.380;7.018;2023-06-04T01:25:05;11.00;89.00
39099;DHT22;24844;52.380;7.018;2023-06-04T01:27:35;10.90;89.60
39099;DHT22;24844;52.380;7.018;2023-06-04T01:30:01;10.90;89.80
39099;DHT22;24844;52.380;7.018;2023-06-04T01:32:29;10.80;90.30
39099;DHT22;24844;52.380;7.018;2023-06-04T01:34:55;10.80;90.80
39099;DHT22;24844;52.380;7.018;2023-06-04T01:37:21;10.80;91.00
39099;DHT22;24844;52.380;7.018;2023-06-04T01:39:47;10.80;92.80
39099;DHT22;24844;52.380;7.018;2023-06-04T01:42:12;10.80;93.00
39099;DHT22;24844;52.380;7.018;2023-06-04T01:44:38;10.80;92.60
39099;DHT22;24844;52.380;7.018;2023-06-04T01:47:03;10.80;93.20
39099;DHT22;24844;52.380;7.018;2023-06-04T01:49:29;10.70;93.70
39099;DHT22;24844;52.380;7.018;2023-06-04T01:51:55;10.60;93.90
39099;DHT22;24844;52.380;7.018;2023-06-04T01:54:21;10.50;95.10
39099;DHT22;24844;52.380;7.018;2023-06-04T01:56:47;10.50;95.90
39099;DHT22;24844;52.380;7.018;2023-06-04T01:59:14;10.50;96.00
39099;DHT22;24844;52.380;7.018;2023-06-04T02:01:41;10.50;96.90
39099;DHT22;24844;52.380;7.018;2023-06-04T02:04:07;10.60;95.80
39099;DHT22;24844;52.380;7.018;2023-06-04T02:06:32;10.60;96.40
39099;DHT22;24844;52.380;7.018;2023-06-04T02:08:58;10.70;95.80
39099;DHT22;24844;52.380;7.018;2023-06-04T02:11:25;10.60;96.70
39099;DHT22;24844;52.380;7.018;2023-06-04T02:13:51;10.60;97.10
39099;DHT22;24844;52.380;7.018;2023-06-04T02:16:17;10.50;98.00
39099;DHT22;24844;52.380;7.018;2023-06-04T02:18:42;10.50;97.90
39099;DHT22;24844;52.380;7.018;2023-06-04T02:21:08;10.50;97.80
39099;DHT22;24844;52.380;7.018;2023-06-04T02:23:34;10.50;98.30
39099;DHT22;24844;52.380;7.018;2023-06-04T02:25:59;10.40;99.00
39099;DHT22;24844;52.380;7.018;2023-06-04T02:28:25;10.40;98.40
39099;DHT22;24844;52.380;7.018;2023-06-04T02:30:50;10.50;98.30
39099;DHT22;24844;52.380;7.018;2023-06-04T02:33:16;10.40;98.90
39099;DHT22;24844;52.380;7.018;2023-06-04T02:35:42;10.40;98.80
39099;DHT22;24844;52.380;7.018;2023-06-04T02:38:08;10.30;99.10
39099;DHT22;24844;52.380;7.018;2023-06-04T02:40:34;10.20;99.90
39099;DHT22;24844;52.380;7.018;2023-06-04T02:42:59;10.20;99.90
39099;DHT22;24844;52.380;7.018;2023-06-04T02:45:25;10.20;99.90
39099;DHT22;24844;52.380;7.018;2023-06-04T02:47:51;10.20;99.90
39099;DHT22;24844;52.380;7.018;2023-06-04T02:50:16;10.20;99.90
39099;DHT22;24844;52.380;7.018;2023-06-04T02:52:42;10.30;99.90
39099;DHT22;24844;52.380;7.018;2023-06-04T02:55:08;10.20;99.90
39099;DHT22;24844;52.380;7.018;2023-06-04T02:57:35;10.10;99.90
39099;DHT22;24844;52.380;7.018;2023-06-04T03:00:01;10.20;99.90
39099;DHT22;24844;52.380;7.018;2023-06-04T03:02:27;10.10;99.90
39099;DHT22;24844;52.380;7.018;2023-06-04T03:04:53;10.10;99.90
39099;DHT22;24844;52.380;7.018;2023-06-04T03:07:20;10.10;99.90
39099;DHT22;24844;52.380;7.018;2023-06-04T03:09:48;10.10;99.90
39099;DHT22;24844;52.380;7.018;2023-06-04T03:12:14;10.00;99.90
39099;DHT22;24844;52.380;7.018;2023-06-04T03:14:39;9.90;99.90
39099;DHT22;24844;52.380;7.018;2023-06-04T03:17:05;9.90;99.90
39099;DHT22;24844;52.380;7.018;2023-06-04T03:19:40;9.80;99.90
39099;DHT22;24844;52.380;7.018;2023-06-04T03:22:06;9.80;99.90
39099;DHT22;24844;52.380;7.018;2023-06-04T03:24:37;9.80;99.90
39099;DHT22;24844;52.380;7.018;2023-06-04T03:27:03;9.80;99.90
39099;DHT22;24844;52.380;7.018;2023-06-04T03:29:30;9.80;99.90
39099;DHT22;24844;52.380;7.018;2023-06-04T03:31:56;9.80;99.90
39099;DHT22;24844;52.380;7.018;2023-06-04T03:34:22;9.80;99.90
39099;DHT22;24844;52.380;7.018;2023-06-04T03:36:53;9.80;99.90
39099;DHT22;24844;52.380;7.018;2023-06-04T03:39:19;9.90;99.90
39099;DHT22;24844;52.380;7.018;2023-06-04T03:41:45;9.80;99.90
39099;DHT22;24844;52.380;7.018;2023-06-04T03:44:15;9.70;99.90
39099;DHT22;24844;52.380;7.018;2023-06-04T03:46:41;9.70;99.90
39099;DHT22;24844;52.380;7.018;2023-06-04T03:49:07;9.80;99.90
39099;DHT22;24844;52.380;7.018;2023-06-04T03:51:32;9.90;99.90
39099;DHT22;24844;52.380;7.018;2023-06-04T03:53:59;10.00;99.90
39099;DHT22;24844;52.380;7.018;2023-06-04T03:56:24;10.00;99.90
39099;DHT22;24844;52.380;7.018;2023-06-04T03:58:52;10.10;99.90
39099;DHT22;24844;52.380;7.018;2023-06-04T04:01:17;10.30;99.90
39099;DHT22;24844;52.380;7.018;2023-06-04T04:03:43;10.60;99.90
39099;DHT22;24844;52.380;7.018;2023-06-04T04:06:10;10.70;99.90
39099;DHT22;24844;52.380;7.018;2023-06-04T04:08:38;11.00;99.90
39099;DHT22;24844;52.380;7.018;2023-06-04T04:11:07;11.20;99.90
39099;DHT22;24844;52.380;7.018;2023-06-04T04:13:33;11.50;99.90
39099;DHT22;24844;52.380;7.018;2023-06-04T04:15:59;11.70;99.90
39099;DHT22;24844;52.380;7.018;2023-06-04T04:18:25;12.10;99.90
39099;DHT22;24844;52.380;7.018;2023-06-04T04:20:51;12.30;99.90
39099;DHT22;24844;52.380;7.018;2023-06-04T04:23:16;12.60;99.90
39099;DHT22;24844;52.380;7.018;2023-06-04T04:25:43;13.10;99.90
39099;DHT22;24844;52.380;7.018;2023-06-04T04:28:09;13.50;99.90
39099;DHT22;24844;52.380;7.018;2023-06-04T04:30:36;13.70;99.90
39099;DHT22;24844;52.380;7.018;2023-06-04T04:33:02;13.90;99.90
39099;DHT22;24844;52.380;7.018;2023-06-04T04:35:30;14.10;99.90
39099;DHT22;24844;52.380;7.018;2023-06-04T04:37:58;14.30;99.90
39099;DHT22;24844;52.380;7.018;2023-06-04T04:40:24;14.50;99.90
39099;DHT22;24844;52.380;7.018;2023-06-04T04:42:50;14.80;99.90
39099;DHT22;24844;52.380;7.018;2023-06-04T04:45:15;15.00;99.90
39099;DHT22;24844;52.380;7.018;2023-06-04T04:47:42;15.30;99.90
39099;DHT22;24844;52.380;7.018;2023-06-04T04:50:08;15.70;99.90
39099;DHT22;24844;52.380;7.018;2023-06-04T04:52:34;16.20;99.90
39099;DHT22;24844;52.380;7.018;2023-06-04T04:54:59;16.40;99.90
39099;DHT22;24844;52.380;7.018;2023-06-04T04:57:25;16.70;99.20
39099;DHT22;24844;52.380;7.018;2023-06-04T04:59:51;16.60;98.90
39099;DHT22;24844;52.380;7.018;2023-06-04T05:02:16;16.90;98.80
39099;DHT22;24844;52.380;7.018;2023-06-04T05:04:42;17.20;98.40
39099;DHT22;24844;52.380;7.018;2023-06-04T05:07:08;17.60;97.70
39099;DHT22;24844;52.380;7.018;2023-06-04T05:09:33;18.10;96.50
39099;DHT22;24844;52.380;7.018;2023-06-04T05:11:59;18.20;95.70
39099;DHT22;24844;52.380;7.018;2023-06-04T05:14:24;18.20;95.80
39099;DHT22;24844;52.380;7.018;2023-06-04T05:16:50;18.50;94.90
39099;DHT22;24844;52.380;7.018;2023-06-04T05:19:16;18.30;94.80
39099;DHT22;24844;52.380;7.018;2023-06-04T05:21:42;18.00;94.30
39099;DHT22;24844;52.380;7.018;2023-06-04T05:24:09;17.70;94.60
39099;DHT22;24844;52.380;7.018;2023-06-04T05:26:35;17.70;94.50
39099;DHT22;24844;52.380;7.018;2023-06-04T05:29:01;17.50;94.50
39099;DHT22;24844;52.380;7.018;2023-06-04T05:31:27;17.40;94.40
39099;DHT22;24844;52.380;7.018;2023-06-04T05:33:52;17.00;94.70
39099;DHT22;24844;52.380;7.018;2023-06-04T05:36:19;17.10;94.50
39099;DHT22;24844;52.380;7.018;2023-06-04T05:38:45;17.10;94.50
39099;DHT22;24844;52.380;7.018;2023-06-04T05:41:10;16.70;95.00
39099;DHT22;24844;52.380;7.018;2023-06-04T05:43:37;16.60;95.00
39099;DHT22;24844;52.380;7.018;2023-06-04T05:46:03;16.60;94.90
39099;DHT22;24844;52.380;7.018;2023-06-04T05:48:28;16.50;95.00
39099;DHT22;24844;52.380;7.018;2023-06-04T05:50:54;16.20;95.60
39099;DHT22;24844;52.380;7.018;2023-06-04T05:53:20;16.40;95.40
39099;DHT22;24844;52.380;7.018;2023-06-04T05:55:45;16.40;95.30
39099;DHT22;24844;52.380;7.018;2023-06-04T05:58:11;16.40;95.30
39099;DHT22;24844;52.380;7.018;2023-06-04T06:00:36;16.40;95.30
39099;DHT22;24844;52.380;7.018;2023-06-04T06:03:02;16.60;95.20
39099;DHT22;24844;52.380;7.018;2023-06-04T06:05:27;16.70;95.00
39099;DHT22;24844;52.380;7.018;2023-06-04T06:07:53;16.80;95.00
39099;DHT22;24844;52.380;7.018;2023-06-04T06:10:19;17.30;94.50
39099;DHT22;24844;52.380;7.018;2023-06-04T06:12:44;17.70;94.20
39099;DHT22;24844;52.380;7.018;2023-06-04T06:15:10;18.10;93.90
39099;DHT22;24844;52.380;7.018;2023-06-04T06:17:38;18.20;93.30
39099;DHT22;24844;52.380;7.018;2023-06-04T06:20:04;18.60;93.10
39099;DHT22;24844;52.380;7.018;2023-06-04T06:22:33;19.20;92.00
39099;DHT22;24844;52.380;7.018;2023-06-04T06:25:01;19.60;91.50
39099;DHT22;24844;52.380;7.018;2023-06-04T06:27:26;19.50;91.10
39099;DHT22;24844;52.380;7.018;2023-06-04T06:29:52;20.30;90.10
39099;DHT22;24844;52.380;7.018;2023-06-04T06:32:17;20.80;89.70
39099;DHT22;24844;52.380;7.018;2023-06-04T06:34:43;21.50;86.50
39099;DHT22;24844;52.380;7.018;2023-06-04T06:37:08;21.30;86.60
39099;DHT22;24844;52.380;7.018;2023-06-04T06:39:34;21.40;85.70
39099;DHT22;24844;52.380;7.018;2023-06-04T06:42:00;22.30;83.50
39099;DHT22;24844;52.380;7.018;2023-06-04T06:44:25;22.60;81.60
39099;DHT22;24844;52.380;7.018;2023-06-04T06:46:51;22.90;79.50
39099;DHT22;24844;52.380;7.018;2023-06-04T06:49:17;23.10;79.10
39099;DHT22;24844;52.380;7.018;2023-06-04T06:51:43;23.30;78.00
39099;DHT22;24844;52.380;7.018;2023-06-04T06:54:09;23.60;78.30
39099;DHT22;24844;52.380;7.018;2023-06-04T06:56:35;24.30;75.60
39099;DHT22;24844;52.380;7.018;2023-06-04T06:59:00;24.90;72.70
39099;DHT22;24844;52.380;7.018;2023-06-04T07:01:26;25.00;71.20
39099;DHT22;24844;52.380;7.018;2023-06-04T07:03:52;25.20;69.60
39099;DHT22;24844;52.380;7.018;2023-06-04T07:06:17;25.30;68.60
39099;DHT22;24844;52.380;7.018;2023-06-04T07:08:43;25.50;68.40
39099;DHT22;24844;52.380;7.018;2023-06-04T07:11:09;26.30;65.30
39099;DHT22;24844;52.380;7.018;2023-06-04T07:13:38;26.20;64.60
39099;DHT22;24844;52.380;7.018;2023-06-04T07:16:04;25.80;64.80
39099;DHT22;24844;52.380;7.018;2023-06-04T07:18:29;26.10;65.30
39099;DHT22;24844;52.380;7.018;2023-06-04T07:20:55;26.90;63.10
39099;DHT22;24844;52.380;7.018;2023-06-04T07:23:21;27.00;61.00
39099;DHT22;24844;52.380;7.018;2023-06-04T07:25:46;26.60;60.70
39099;DHT22;24844;52.380;7.018;2023-06-04T07:28:12;26.70;60.40
39099;DHT22;24844;52.380;7.018;2023-06-04T07:30:38;27.50;59.40
39099;DHT22;24844;52.380;7.018;2023-06-04T07:33:04;28.10;58.70
39099;DHT22;24844;52.380;7.018;2023-06-04T07:35:29;28.00;56.70
39099;DHT22;24844;52.380;7.018;2023-06-04T07:37:55;27.90;57.30
39099;DHT22;24844;52.380;7.018;2023-06-04T07:40:21;27.70;56.60
39099;DHT22;24844;52.380;7.018;2023-06-04T07:42:47;28.60;55.50
39099;DHT22;24844;52.380;7.018;2023-06-04T07:45:14;29.30;55.10
39099;DHT22;24844;52.380;7.018;2023-06-04T07:47:39;29.50;52.70
39099;DHT22;24844;52.380;7.018;2023-06-04T07:50:06;29.90;53.40
39099;DHT22;24844;52.380;7.018;2023-06-04T07:52:32;30.10;51.30
39099;DHT22;24844;52.380;7.018;2023-06-04T07:54:59;30.30;49.80
39099;DHT22;24844;52.380;7.018;2023-06-04T07:57:25;30.10;50.00
39099;DHT22;24844;52.380;7.018;2023-06-04T07:59:50;30.50;50.00
39099;DHT22;24844;52.380;7.018;2023-06-04T08:02:16;30.50;49.30
39099;DHT22;24844;52.380;7.018;2023-06-04T08:04:42;30.50;49.00
39099;DHT22;24844;52.380;7.018;2023-06-04T08:07:08;30.40;47.60
39099;DHT22;24844;52.380;7.018;2023-06-04T08:09:33;30.00;47.90
39099;DHT22;24844;52.380;7.018;2023-06-04T08:11:59;30.60;47.70
39099;DHT22;24844;52.380;7.018;2023-06-04T08:14:25;30.80;47.00
39099;DHT22;24844;52.380;7.018;2023-06-04T08:16:53;30.70;46.90
39099;DHT22;24844;52.380;7.018;2023-06-04T08:19:18;31.10;46.30
39099;DHT22;24844;52.380;7.018;2023-06-04T08:21:44;31.30;45.10
39099;DHT22;24844;52.380;7.018;2023-06-04T08:24:11;32.40;44.60
39099;DHT22;24844;52.380;7.018;2023-06-04T08:26:37;32.50;44.40
39099;DHT22;24844;52.380;7.018;2023-06-04T08:29:03;32.40;44.50
39099;DHT22;24844;52.380;7.018;2023-06-04T08:31:32;32.00;44.60
39099;DHT22;24844;52.380;7.018;2023-06-04T08:33:58;32.70;42.60
39099;DHT22;24844;52.380;7.018;2023-06-04T08:36:24;32.90;41.80
39099;DHT22;24844;52.380;7.018;2023-06-04T08:38:50;32.30;42.00
39099;DHT22;24844;52.380;7.018;2023-06-04T08:41:35;32.80;42.10
39099;DHT22;24844;52.380;7.018;2023-06-04T08:44:05;33.10;41.50
39099;DHT22;24844;52.380;7.018;2023-06-04T08:46:32;33.30;40.90
39099;DHT22;24844;52.380;7.018;2023-06-04T08:49:00;33.10;39.80
39099;DHT22;24844;52.380;7.018;2023-06-04T08:51:33;32.90;41.30
39099;DHT22;24844;52.380;7.018;2023-06-04T08:53:59;33.50;40.90
39099;DHT22;24844;52.380;7.018;2023-06-04T08:56:25;33.40;39.60
39099;DHT22;24844;52.380;7.018;2023-06-04T08:58:51;33.20;40.40
39099;DHT22;24844;52.380;7.018;2023-06-04T09:01:18;33.40;40.60
39099;DHT22;24844;52.380;7.018;2023-06-04T09:03:44;33.90;40.40
39099;DHT22;24844;52.380;7.018;2023-06-04T09:06:11;34.20;39.40
39099;DHT22;24844;52.380;7.018;2023-06-04T09:08:38;34.00;39.00
39099;DHT22;24844;52.380;7.018;2023-06-04T09:11:05;34.20;38.60
39099;DHT22;24844;52.380;7.018;2023-06-04T09:13:33;34.20;38.80
39099;DHT22;24844;52.380;7.018;2023-06-04T09:18:26;34.30;37.80
39099;DHT22;24844;52.380;7.018;2023-06-04T09:21:05;34.20;38.00
39099;DHT22;24844;52.380;7.018;2023-06-04T09:23:44;34.50;36.30
39099;DHT22;24844;52.380;7.018;2023-06-04T09:26:10;34.80;36.80
39099;DHT22;24844;52.380;7.018;2023-06-04T09:28:40;34.60;37.00
39099;DHT22;24844;52.380;7.018;2023-06-04T09:31:08;34.70;36.60
39099;DHT22;24844;52.380;7.018;2023-06-04T09:33:48;34.50;37.10
39099;DHT22;24844;52.380;7.018;2023-06-04T09:36:14;33.80;37.10
39099;DHT22;24844;52.380;7.018;2023-06-04T09:38:40;33.40;37.00
39099;DHT22;24844;52.380;7.018;2023-06-04T09:41:17;32.80;37.00
39099;DHT22;24844;52.380;7.018;2023-06-04T09:43:45;33.60;36.20
39099;DHT22;24844;52.380;7.018;2023-06-04T09:46:15;33.50;36.30
39099;DHT22;24844;52.380;7.018;2023-06-04T09:48:41;34.00;36.30
39099;DHT22;24844;52.380;7.018;2023-06-04T09:51:16;33.40;36.70
39099;DHT22;24844;52.380;7.018;2023-06-04T09:53:53;34.60;36.90
39099;DHT22;24844;52.380;7.018;2023-06-04T09:56:20;34.60;35.90
39099;DHT22;24844;52.380;7.018;2023-06-04T09:58:48;34.80;36.00
39099;DHT22;24844;52.380;7.018;2023-06-04T10:01:14;34.80;36.10
39099;DHT22;24844;52.380;7.018;2023-06-04T10:03:42;35.40;36.00
39099;DHT22;24844;52.380;7.018;2023-06-04T10:06:10;35.30;34.70
39099;DHT22;24844;52.380;7.018;2023-06-04T10:08:39;33.10;35.80
39099;DHT22;24844;52.380;7.018;2023-06-04T10:11:07;34.60;34.80
39099;DHT22;24844;52.380;7.018;2023-06-04T10:13:41;35.70;34.40
39099;DHT22;24844;52.380;7.018;2023-06-04T10:16:11;35.90;34.60
39099;DHT22;24844;52.380;7.018;2023-06-04T10:18:37;35.20;34.70
39099;DHT22;24844;52.380;7.018;2023-06-04T10:21:04;35.60;34.00
39099;DHT22;24844;52.380;7.018;2023-06-04T10:23:30;35.90;33.90
39099;DHT22;24844;52.380;7.018;2023-06-04T10:25:56;35.60;33.80
39099;DHT22;24844;52.380;7.018;2023-06-04T10:28:23;35.80;33.50
39099;DHT22;24844;52.380;7.018;2023-06-04T10:30:49;35.90;33.30
39099;DHT22;24844;52.380;7.018;2023-06-04T10:33:22;34.50;32.70
39099;DHT22;24844;52.380;7.018;2023-06-04T10:35:52;33.50;34.50
39099;DHT22;24844;52.380;7.018;2023-06-04T10:38:18;34.90;34.40
39099;DHT22;24844;52.380;7.018;2023-06-04T10:40:46;32.90;34.60
39099;DHT22;24844;52.380;7.018;2023-06-04T10:43:12;33.10;34.30
39099;DHT22;24844;52.380;7.018;2023-06-04T10:45:40;33.30;34.70
39099;DHT22;24844;52.380;7.018;2023-06-04T10:48:07;34.70;34.20
39099;DHT22;24844;52.380;7.018;2023-06-04T10:50:34;34.20;33.80
39099;DHT22;24844;52.380;7.018;2023-06-04T10:53:01;35.50;33.30
39099;DHT22;24844;52.380;7.018;2023-06-04T10:55:31;35.30;33.10
39099;DHT22;24844;52.380;7.018;2023-06-04T10:57:58;34.00;33.20
39099;DHT22;24844;52.380;7.018;2023-06-04T11:00:41;33.90;34.20
39099;DHT22;24844;52.380;7.018;2023-06-04T11:03:09;32.20;34.60
39099;DHT22;24844;52.380;7.018;2023-06-04T11:05:39;31.00;35.60
39099;DHT22;24844;52.380;7.018;2023-06-04T11:08:05;29.70;36.40
39099;DHT22;24844;52.380;7.018;2023-06-04T11:10:36;28.60;37.10
39099;DHT22;24844;52.380;7.018;2023-06-04T11:13:04;27.00;38.40
39099;DHT22;24844;52.380;7.018;2023-06-04T11:15:41;26.80;38.50
39099;DHT22;24844;52.380;7.018;2023-06-04T11:18:06;26.80;38.70
39099;DHT22;24844;52.380;7.018;2023-06-04T11:20:32;26.40;39.70
39099;DHT22;24844;52.380;7.018;2023-06-04T11:22:59;26.30;39.50
39099;DHT22;24844;52.380;7.018;2023-06-04T11:25:29;26.10;39.90
39099;DHT22;24844;52.380;7.018;2023-06-04T11:27:56;26.00;40.50
39099;DHT22;24844;52.380;7.018;2023-06-04T11:30:23;26.00;40.50
39099;DHT22;24844;52.380;7.018;2023-06-04T11:32:49;24.90;40.80
39099;DHT22;24844;52.380;7.018;2023-06-04T11:35:15;25.10;41.20
39099;DHT22;24844;52.380;7.018;2023-06-04T11:37:41;25.70;40.80
39099;DHT22;24844;52.380;7.018;2023-06-04T11:40:17;25.10;41.00
39099;DHT22;24844;52.380;7.018;2023-06-04T11:42:44;25.50;40.70
39099;DHT22;24844;52.380;7.018;2023-06-04T11:45:12;25.20;40.60
39099;DHT22;24844;52.380;7.018;2023-06-04T11:47:39;25.10;41.20
39099;DHT22;24844;52.380;7.018;2023-06-04T11:50:05;25.30;41.40
39099;DHT22;24844;52.380;7.018;2023-06-04T11:52:33;25.30;41.10
39099;DHT22;24844;52.380;7.018;2023-06-04T11:54:59;25.10;42.00
39099;DHT22;24844;52.380;7.018;2023-06-04T11:57:25;25.10;42.00
39099;DHT22;24844;52.380;7.018;2023-06-04T11:59:51;25.10;41.50
39099;DHT22;24844;52.380;7.018;2023-06-04T12:02:16;25.10;41.70
39099;DHT22;24844;52.380;7.018;2023-06-04T12:04:44;25.20;41.40
39099;DHT22;24844;52.380;7.018;2023-06-04T12:07:09;24.80;41.60
39099;DHT22;24844;52.380;7.018;2023-06-04T12:09:35;25.00;41.50
39099;DHT22;24844;52.380;7.018;2023-06-04T12:12:07;25.00;42.30
39099;DHT22;24844;52.380;7.018;2023-06-04T12:14:33;24.70;42.70
39099;DHT22;24844;52.380;7.018;2023-06-04T12:17:06;23.90;43.40
39099;DHT22;24844;52.380;7.018;2023-06-04T12:19:32;23.90;44.10
39099;DHT22;24844;52.380;7.018;2023-06-04T12:24:26;24.40;43.00
39099;DHT22;24844;52.380;7.018;2023-06-04T12:27:09;24.50;42.60
39099;DHT22;24844;52.380;7.018;2023-06-04T12:29:36;24.70;42.20
39099;DHT22;24844;52.380;7.018;2023-06-04T12:32:10;24.20;43.00
39099;DHT22;24844;52.380;7.018;2023-06-04T12:34:41;24.30;42.60
39099;DHT22;24844;52.380;7.018;2023-06-04T12:37:08;24.50;42.20
39099;DHT22;24844;52.380;7.018;2023-06-04T12:39:34;24.30;43.20
39099;DHT22;24844;52.380;7.018;2023-06-04T12:42:05;24.50;43.60
39099;DHT22;24844;52.380;7.018;2023-06-04T12:44:31;24.30;43.20
39099;DHT22;24844;52.380;7.018;2023-06-04T12:46:56;24.10;43.20
39099;DHT22;24844;52.380;7.018;2023-06-04T12:49:22;24.00;43.10
39099;DHT22;24844;52.380;7.018;2023-06-04T12:51:47;24.40;43.40
39099;DHT22;24844;52.380;7.018;2023-06-04T12:54:13;24.40;42.90
39099;DHT22;24844;52.380;7.018;2023-06-04T12:56:40;24.70;42.20
39099;DHT22;24844;52.380;7.018;2023-06-04T12:59:08;24.50;42.50
39099;DHT22;24844;52.380;7.018;2023-06-04T13:01:34;24.20;43.10
39099;DHT22;24844;52.380;7.018;2023-06-04T13:04:00;24.40;43.00
39099;DHT22;24844;52.380;7.018;2023-06-04T13:06:25;24.50;43.00
39099;DHT22;24844;52.380;7.018;2023-06-04T13:08:51;24.80;42.90
39099;DHT22;24844;52.380;7.018;2023-06-04T13:11:17;24.80;43.20
39099;DHT22;24844;52.380;7.018;2023-06-04T13:13:43;24.90;42.40
39099;DHT22;24844;52.380;7.018;2023-06-04T13:16:08;24.70;43.30
39099;DHT22;24844;52.380;7.018;2023-06-04T13:18:34;24.80;42.70
39099;DHT22;24844;52.380;7.018;2023-06-04T13:21:00;24.80;42.20
39099;DHT22;24844;52.380;7.018;2023-06-04T13:23:25;24.80;41.80
39099;DHT22;24844;52.380;7.018;2023-06-04T13:25:51;24.40;42.60
39099;DHT22;24844;52.380;7.018;2023-06-04T13:28:16;24.10;43.00
39099;DHT22;24844;52.380;7.018;2023-06-04T13:30:43;24.60;42.90
39099;DHT22;24844;52.380;7.018;2023-06-04T13:33:08;24.50;42.80
39099;DHT22;24844;52.380;7.018;2023-06-04T13:35:34;24.70;43.60
39099;DHT22;24844;52.380;7.018;2023-06-04T13:38:01;24.60;42.40
39099;DHT22;24844;52.380;7.018;2023-06-04T13:40:27;25.10;42.30
39099;DHT22;24844;52.380;7.018;2023-06-04T13:42:52;25.00;42.40
39099;DHT22;24844;52.380;7.018;2023-06-04T13:45:18;25.00;43.00
39099;DHT22;24844;52.380;7.018;2023-06-04T13:47:46;25.10;43.20
39099;DHT22;24844;52.380;7.018;2023-06-04T13:50:13;25.20;42.50
39099;DHT22;24844;52.380;7.018;2023-06-04T13:52:39;24.80;42.60
39099;DHT22;24844;52.380;7.018;2023-06-04T13:55:05;24.80;42.00
39099;DHT22;24844;52.380;7.018;2023-06-04T13:57:30;24.60;42.00
39099;DHT22;24844;52.380;7.018;2023-06-04T13:59:56;24.50;42.20
39099;DHT22;24844;52.380;7.018;2023-06-04T14:02:22;24.80;42.30
39099;DHT22;24844;52.380;7.018;2023-06-04T14:04:49;25.00;42.40
39099;DHT22;24844;52.380;7.018;2023-06-04T14:07:16;25.30;42.30
39099;DHT22;24844;52.380;7.018;2023-06-04T14:09:41;25.30;42.00
39099;DHT22;24844;52.380;7.018;2023-06-04T14:12:08;25.00;42.10
39099;DHT22;24844;52.380;7.018;2023-06-04T14:14:33;24.80;42.70
39099;DHT22;24844;52.380;7.018;2023-06-04T14:17:05;24.60;42.70
39099;DHT22;24844;52.380;7.018;2023-06-04T14:19:34;24.90;42.80
39099;DHT22;24844;52.380;7.018;2023-06-04T14:22:03;24.90;43.00
39099;DHT22;24844;52.380;7.018;2023-06-04T14:24:29;24.90;42.80
39099;DHT22;24844;52.380;7.018;2023-06-04T14:26:56;24.80;43.00
39099;DHT22;24844;52.380;7.018;2023-06-04T14:29:21;25.20;43.10
39099;DHT22;24844;52.380;7.018;2023-06-04T14:31:47;24.80;42.80
39099;DHT22;24844;52.380;7.018;2023-06-04T14:34:12;24.80;43.10
39099;DHT22;24844;52.380;7.018;2023-06-04T14:36:38;25.00;42.80
39099;DHT22;24844;52.380;7.018;2023-06-04T14:39:04;25.10;43.10
39099;DHT22;24844;52.380;7.018;2023-06-04T14:41:29;25.10;43.00
39099;DHT22;24844;52.380;7.018;2023-06-04T14:43:56;25.10;42.90
39099;DHT22;24844;52.380;7.018;2023-06-04T14:46:22;24.80;43.90
39099;DHT22;24844;52.380;7.018;2023-06-04T14:48:47;25.20;43.10
39099;DHT22;24844;52.380;7.018;2023-06-04T14:51:13;25.20;44.30
39099;DHT22;24844;52.380;7.018;2023-06-04T14:53:38;25.30;44.10
39099;DHT22;24844;52.380;7.018;2023-06-04T14:56:07;25.20;44.50
39099;DHT22;24844;52.380;7.018;2023-06-04T14:58:33;25.20;44.10
39099;DHT22;24844;52.380;7.018;2023-06-04T15:00:59;24.70;44.60
39099;DHT22;24844;52.380;7.018;2023-06-04T15:03:25;24.80;44.50
39099;DHT22;24844;52.380;7.018;2023-06-04T15:05:52;24.80;44.60
39099;DHT22;24844;52.380;7.018;2023-06-04T15:08:17;24.80;44.70
39099;DHT22;24844;52.380;7.018;2023-06-04T15:10:43;24.90;44.90
39099;DHT22;24844;52.380;7.018;2023-06-04T15:13:08;24.80;45.20
39099;DHT22;24844;52.380;7.018;2023-06-04T15:15:34;25.10;44.80
39099;DHT22;24844;52.380;7.018;2023-06-04T15:18:00;24.80;45.70
39099;DHT22;24844;52.380;7.018;2023-06-04T15:20:26;24.90;44.30
39099;DHT22;24844;52.380;7.018;2023-06-04T15:22:53;24.90;44.10
39099;DHT22;24844;52.380;7.018;2023-06-04T15:25:19;24.90;44.10
39099;DHT22;24844;52.380;7.018;2023-06-04T15:27:44;24.70;44.80
39099;DHT22;24844;52.380;7.018;2023-06-04T15:30:10;24.50;45.20
39099;DHT22;24844;52.380;7.018;2023-06-04T15:32:36;24.60;45.00
39099;DHT22;24844;52.380;7.018;2023-06-04T15:35:02;24.50;44.90
39099;DHT22;24844;52.380;7.018;2023-06-04T15:37:28;24.40;45.30
39099;DHT22;24844;52.380;7.018;2023-06-04T15:39:54;24.70;45.30